createdAt,value
2022-08-12T00:00:04.114Z,14.90
2022-08-12T00:03:24.619Z,14.90
2022-08-12T00:06:47.053Z,14.78
2022-08-12T00:10:08.871Z,14.67
2022-08-12T00:13:30.278Z,14.57
2022-08-12T00:16:51.477Z,14.53
2022-08-12T00:20:11.755Z,14.59
2022-08-12T00:23:32.185Z,14.55
2022-08-12T00:26:53.702Z,14.42
2022-08-12T00:30:14.726Z,14.38
2022-08-12T00:33:38.742Z,14.39
2022-08-12T00:37:14.326Z,14.30
2022-08-12T00:40:34.576Z,14.28
2022-08-12T00:43:38.536Z,14.34
2022-08-12T00:46:48.274Z,14.49
2022-08-12T00:49:51.330Z,14.55
2022-08-12T00:52:54.056Z,14.47
2022-08-12T00:55:58.218Z,14.37
2022-08-12T00:59:04.347Z,14.31
2022-08-12T01:02:10.972Z,14.13
2022-08-12T01:05:35.617Z,13.90
2022-08-12T01:08:56.425Z,13.73
2022-08-12T01:11:58.944Z,13.70
2022-08-12T01:15:03.842Z,13.65
2022-08-12T01:18:06.742Z,13.61
2022-08-12T01:21:16.604Z,13.65
2022-08-12T01:24:44.690Z,13.52
2022-08-12T01:27:50.800Z,13.47
2022-08-12T01:30:54.856Z,13.40
2022-08-12T01:34:04.019Z,13.37
2022-08-12T01:37:09.283Z,13.26
2022-08-12T01:40:35.493Z,13.25
2022-08-12T01:43:41.275Z,13.24
2022-08-12T01:46:54.242Z,13.21
2022-08-12T01:50:13.507Z,13.17
2022-08-12T01:53:20.694Z,13.14
2022-08-12T01:56:32.017Z,13.09
2022-08-12T01:59:50.121Z,13.14
2022-08-12T02:02:58.801Z,12.95
2022-08-12T02:06:28.976Z,12.78
2022-08-12T02:10:49.489Z,12.72
2022-08-12T02:14:07.880Z,12.78
2022-08-12T02:17:28.323Z,12.77
2022-08-12T02:20:53.926Z,12.53
2022-08-12T02:23:57.837Z,12.56
2022-08-12T02:27:01.824Z,12.61
2022-08-12T02:30:06.293Z,12.64
2022-08-12T02:33:10.806Z,12.68
2022-08-12T02:36:13.534Z,12.49
2022-08-12T02:39:17.041Z,12.47
2022-08-12T02:42:23.477Z,12.58
2022-08-12T02:45:36.148Z,12.55
2022-08-12T02:48:46.453Z,12.41
2022-08-12T02:51:48.975Z,12.36
2022-08-12T02:55:01.453Z,12.25
2022-08-12T02:58:12.165Z,12.16
2022-08-12T03:01:23.610Z,12.25
2022-08-12T03:04:40.093Z,12.45
2022-08-12T03:07:56.107Z,12.25
2022-08-12T03:11:11.793Z,12.05
2022-08-12T03:14:18.594Z,11.97
2022-08-12T03:17:29.077Z,11.99
2022-08-12T03:20:38.061Z,12.01
2022-08-12T03:23:42.419Z,12.06
2022-08-12T03:26:46.271Z,11.98
2022-08-12T03:29:51.618Z,11.92
2022-08-12T03:32:57.869Z,11.94
2022-08-12T03:36:04.308Z,12.08
2022-08-12T03:39:36.434Z,12.10
2022-08-12T03:42:51.793Z,12.16
2022-08-12T03:46:17.000Z,12.17
2022-08-12T03:49:37.787Z,12.18
2022-08-12T03:52:59.473Z,12.27
2022-08-12T03:56:19.825Z,12.12
2022-08-12T03:59:39.707Z,12.16
2022-08-12T04:02:42.232Z,12.28
2022-08-12T04:05:55.829Z,12.42
2022-08-12T04:09:00.733Z,12.62
2022-08-12T04:12:22.532Z,12.79
2022-08-12T04:15:32.491Z,12.83
2022-08-12T04:18:35.892Z,12.92
2022-08-12T04:21:42.204Z,13.23
2022-08-12T04:25:04.369Z,13.47
2022-08-12T04:28:13.697Z,13.88
2022-08-12T04:31:16.507Z,14.50
2022-08-12T04:34:19.573Z,14.97
2022-08-12T04:37:23.004Z,15.94
2022-08-12T04:40:30.106Z,17.54
2022-08-12T04:43:59.703Z,19.11
2022-08-12T04:46:55.989Z,20.28
2022-08-12T04:49:58.504Z,21.02
2022-08-12T04:53:01.582Z,21.75
2022-08-12T04:56:06.176Z,21.49
2022-08-12T04:59:08.680Z,21.62
2022-08-12T05:02:11.161Z,21.66
2022-08-12T05:05:23.713Z,22.39
2022-08-12T05:08:26.752Z,22.74
2022-08-12T05:11:30.650Z,23.10
2022-08-12T05:14:37.385Z,23.35
2022-08-12T05:17:40.930Z,24.17
2022-08-12T05:20:44.830Z,24.41
2022-08-12T05:23:47.353Z,23.82
2022-08-12T05:26:51.935Z,23.63
2022-08-12T05:30:06.650Z,24.10
2022-08-12T05:33:11.854Z,23.89
2022-08-12T05:36:16.404Z,23.65
2022-08-12T05:39:18.922Z,24.16
2022-08-12T05:42:34.340Z,24.14
2022-08-12T05:45:41.560Z,23.62
2022-08-12T05:48:47.036Z,23.62
2022-08-12T05:51:49.646Z,23.62
2022-08-12T05:54:57.465Z,23.23
2022-08-12T05:58:02.982Z,22.84
2022-08-12T06:02:10.937Z,22.75
2022-08-12T06:04:28.313Z,22.64
2022-08-12T06:08:00.076Z,22.98
2022-08-12T06:10:57.619Z,23.42
2022-08-12T06:14:01.426Z,23.91
2022-08-12T06:17:14.535Z,24.47
2022-08-12T06:20:27.840Z,24.57
2022-08-12T06:23:32.259Z,25.00
2022-08-12T06:26:34.777Z,25.34
2022-08-12T06:30:07.924Z,25.44
2022-08-12T06:33:21.022Z,25.96
2022-08-12T06:36:30.020Z,26.43
2022-08-12T06:39:36.269Z,26.71
2022-08-12T06:42:52.274Z,27.17
2022-08-12T06:45:58.077Z,27.23
2022-08-12T06:49:00.698Z,27.51
2022-08-12T06:52:04.445Z,27.63
2022-08-12T06:55:07.534Z,28.26
2022-08-12T06:58:11.641Z,28.71
2022-08-12T07:01:17.438Z,28.68
2022-08-12T07:04:38.259Z,29.04
2022-08-12T07:07:41.789Z,29.36
2022-08-12T07:10:47.477Z,29.74
2022-08-12T07:14:12.885Z,29.75
2022-08-12T07:17:17.019Z,29.87
2022-08-12T07:20:50.286Z,30.11
2022-08-12T07:23:43.162Z,30.64
2022-08-12T07:26:45.693Z,31.03
2022-08-12T07:29:58.219Z,30.80
2022-08-12T07:33:09.964Z,30.60
2022-08-12T07:36:14.857Z,30.78
2022-08-12T07:39:17.336Z,30.67
2022-08-12T07:42:19.907Z,30.52
2022-08-12T07:45:22.601Z,30.95
2022-08-12T07:48:27.135Z,30.95
2022-08-12T07:51:30.115Z,30.80
2022-08-12T07:54:32.616Z,30.88
2022-08-12T07:57:35.950Z,30.93
2022-08-12T08:00:40.927Z,31.30
2022-08-12T08:04:00.254Z,30.86
2022-08-12T08:07:02.749Z,30.56
2022-08-12T08:10:10.741Z,30.61
2022-08-12T08:13:13.484Z,30.56
2022-08-12T08:16:16.111Z,31.05
2022-08-12T08:19:23.901Z,31.86
2022-08-12T08:22:41.455Z,32.11
2022-08-12T08:25:45.634Z,32.16
2022-08-12T08:28:48.124Z,31.74
2022-08-12T08:31:54.489Z,31.83
2022-08-12T08:34:59.789Z,31.90
2022-08-12T08:38:11.580Z,31.98
2022-08-12T08:42:16.870Z,31.88
2022-08-12T09:42:51.483Z,32.19
2022-08-12T09:46:11.814Z,32.73
2022-08-12T09:49:16.225Z,31.99
2022-08-12T09:52:19.195Z,32.36
2022-08-12T09:56:03.726Z,32.12
2022-08-12T09:58:59.811Z,31.87
2022-08-12T10:02:44.095Z,31.94
2022-08-12T10:06:27.324Z,32.33
2022-08-12T10:08:52.535Z,32.73
2022-08-12T10:12:13.751Z,33.27
2022-08-12T10:16:01.896Z,34.20
2022-08-12T10:18:51.711Z,33.24
2022-08-12T10:21:56.657Z,33.82
2022-08-12T10:25:17.890Z,33.14
2022-08-12T10:28:38.920Z,32.87
2022-08-12T10:32:19.982Z,32.17
2022-08-12T10:35:08.999Z,32.57
2022-08-12T10:38:38.229Z,33.13
2022-08-12T10:42:00.075Z,32.89
2022-08-12T10:45:05.046Z,33.59
2022-08-12T10:48:21.839Z,33.55
2022-08-12T10:52:04.159Z,33.16
2022-08-12T10:55:00.111Z,34.56
2022-08-12T10:58:14.952Z,35.08
2022-08-12T11:04:18.688Z,34.61
2022-08-12T11:04:52.842Z,33.20
2022-08-12T11:08:34.697Z,32.95
2022-08-12T11:12:07.692Z,32.60
2022-08-12T11:14:50.593Z,32.58
2022-08-12T11:17:55.716Z,32.52
2022-08-12T11:21:00.973Z,31.89
2022-08-12T11:24:08.328Z,32.36
2022-08-12T11:27:30.910Z,32.77
2022-08-12T11:30:33.954Z,31.26
2022-08-12T11:34:06.097Z,31.76
2022-08-12T11:37:04.918Z,32.23
2022-08-12T11:43:19.715Z,32.18
2022-08-12T11:46:22.985Z,33.26
2022-08-12T11:49:31.199Z,33.33
2022-08-12T11:52:56.733Z,33.62
2022-08-12T11:55:58.768Z,32.81
2022-08-12T12:02:23.753Z,30.79
2022-08-12T12:05:39.612Z,31.83
2022-08-12T12:08:52.802Z,32.18
2022-08-12T12:11:56.557Z,31.79
2022-08-12T12:15:03.195Z,32.47
2022-08-12T12:18:22.497Z,32.29
2022-08-12T12:21:47.009Z,31.95
2022-08-12T12:24:52.674Z,32.05
2022-08-12T12:28:06.054Z,31.86
2022-08-12T12:31:14.641Z,31.83
2022-08-12T12:34:31.676Z,32.01
2022-08-12T12:38:04.999Z,31.77
2022-08-12T12:40:58.075Z,32.15
2022-08-12T12:44:04.366Z,32.83
2022-08-12T12:47:26.031Z,32.65
2022-08-12T12:50:35.286Z,32.02
2022-08-12T12:54:08.432Z,31.45
2022-08-12T12:57:03.598Z,31.26
2022-08-12T13:00:17.909Z,32.02
2022-08-12T13:03:21.911Z,32.42
2022-08-12T13:06:25.687Z,31.66
2022-08-12T13:09:35.997Z,32.74
2022-08-12T13:12:42.543Z,32.84
2022-08-12T13:15:47.795Z,32.27
2022-08-12T13:18:53.923Z,32.00
2022-08-12T13:22:18.655Z,31.33
2022-08-12T13:25:22.651Z,31.05
2022-08-12T13:28:29.554Z,30.47
2022-08-12T13:31:35.584Z,29.86
2022-08-12T13:34:38.239Z,30.91
2022-08-12T13:37:43.823Z,32.08
2022-08-12T13:40:58.411Z,32.01
2022-08-12T13:44:04.485Z,32.44
2022-08-12T13:47:19.857Z,32.54
2022-08-12T13:50:26.644Z,32.19
2022-08-12T13:53:55.494Z,32.68
2022-08-12T13:56:53.667Z,31.72
2022-08-12T14:00:01.842Z,32.39
2022-08-12T14:03:05.874Z,32.96
2022-08-12T14:06:08.533Z,31.46
2022-08-12T14:09:20.024Z,31.13
2022-08-12T14:12:24.298Z,32.04
2022-08-12T14:15:36.764Z,32.78
2022-08-12T14:18:42.091Z,33.04
2022-08-12T14:21:59.404Z,33.29
2022-08-12T14:25:04.810Z,32.72
2022-08-12T14:28:11.374Z,32.37
2022-08-12T14:31:18.790Z,31.93
2022-08-12T14:34:28.450Z,31.17
2022-08-12T14:37:58.063Z,30.37
2022-08-12T14:40:56.515Z,30.28
2022-08-12T14:44:06.302Z,30.44
2022-08-12T14:47:22.901Z,30.48
2022-08-12T14:50:37.679Z,30.57
2022-08-12T14:55:28.342Z,30.65
2022-08-12T14:58:00.491Z,30.52
2022-08-12T15:00:53.575Z,30.06
2022-08-12T15:04:02.262Z,29.88
2022-08-12T15:07:04.838Z,29.80
2022-08-12T15:10:10.309Z,29.86
2022-08-12T15:13:13.799Z,30.17
2022-08-12T15:16:18.957Z,30.03
2022-08-12T15:20:28.234Z,29.59
2022-08-12T15:22:54.151Z,29.34
2022-08-12T15:26:02.694Z,29.70
2022-08-12T15:29:06.494Z,30.34
2022-08-12T15:32:15.882Z,30.76
2022-08-12T15:35:20.489Z,30.93
2022-08-12T15:38:28.161Z,31.06
2022-08-12T15:41:30.882Z,31.31
2022-08-12T15:44:53.114Z,31.53
2022-08-12T15:48:04.645Z,31.50
2022-08-12T15:51:58.919Z,31.70
2022-08-12T15:54:58.671Z,31.69
2022-08-12T15:58:02.801Z,31.02
2022-08-12T16:01:11.442Z,30.65
2022-08-12T16:04:14.008Z,30.56
2022-08-12T16:07:26.268Z,30.34
2022-08-12T16:10:34.154Z,29.90
2022-08-12T16:13:37.064Z,29.72
2022-08-12T16:16:39.510Z,29.29
2022-08-12T16:20:05.125Z,28.99
2022-08-12T16:23:35.730Z,29.34
2022-08-12T16:26:35.020Z,29.49
2022-08-12T16:29:53.146Z,29.63
2022-08-12T16:32:58.286Z,29.64
2022-08-12T16:36:01.931Z,29.67
2022-08-12T16:39:05.765Z,29.61
2022-08-12T16:42:08.273Z,29.60
2022-08-12T16:45:14.002Z,29.65
2022-08-12T16:48:34.714Z,29.75
2022-08-12T16:51:41.736Z,29.84
2022-08-12T16:54:49.408Z,29.71
2022-08-12T16:57:54.051Z,29.57
2022-08-12T17:01:02.064Z,29.34
2022-08-12T17:04:08.184Z,29.43
2022-08-12T17:07:16.677Z,29.36
2022-08-12T17:10:36.614Z,29.39
2022-08-12T17:13:53.036Z,29.29
2022-08-12T17:16:57.008Z,29.21
2022-08-12T17:20:35.488Z,29.12
2022-08-12T17:23:47.871Z,28.98
2022-08-12T17:26:53.697Z,28.79
2022-08-12T17:30:04.177Z,28.61
2022-08-12T17:33:08.652Z,28.57
2022-08-12T17:36:11.130Z,28.52
2022-08-12T17:39:13.666Z,28.53
2022-08-12T17:42:34.557Z,28.55
2022-08-12T17:45:40.528Z,28.47
2022-08-12T17:48:54.564Z,28.31
2022-08-12T17:52:03.225Z,28.21
2022-08-12T17:55:20.081Z,28.15
2022-08-12T17:58:37.352Z,27.92
2022-08-12T18:01:45.338Z,27.69
2022-08-12T18:05:09.399Z,27.42
2022-08-12T18:08:11.741Z,27.15
2022-08-12T18:12:04.809Z,26.87
2022-08-12T18:15:09.518Z,26.60
2022-08-12T18:18:17.391Z,26.40
2022-08-12T18:21:22.013Z,26.18
2022-08-12T18:24:29.709Z,26.06
2022-08-12T18:27:44.796Z,25.84
2022-08-12T18:30:53.283Z,25.35
2022-08-12T18:34:00.922Z,25.04
2022-08-12T18:37:16.385Z,24.60
2022-08-12T18:40:46.499Z,24.58
2022-08-12T18:43:58.872Z,24.67
2022-08-12T18:47:09.606Z,24.67
2022-08-12T18:50:16.058Z,24.58
2022-08-12T18:54:05.694Z,24.57
2022-08-12T18:56:45.427Z,24.42
2022-08-12T19:00:02.628Z,24.31
2022-08-12T19:03:38.949Z,24.21
2022-08-12T19:06:39.377Z,24.02
2022-08-12T19:09:58.317Z,23.95
2022-08-12T19:13:23.923Z,23.82
2022-08-12T19:16:27.843Z,23.72
2022-08-12T19:19:37.530Z,23.66
2022-08-12T19:23:02.163Z,23.47
2022-08-12T19:26:10.827Z,23.28
2022-08-12T19:29:18.158Z,23.04
2022-08-12T19:32:24.090Z,22.82
2022-08-12T19:36:07.324Z,22.80
2022-08-12T19:38:57.089Z,22.79
2022-08-12T19:42:01.256Z,22.72
2022-08-12T19:45:05.678Z,22.54
2022-08-12T19:48:17.846Z,22.28
2022-08-12T19:51:33.302Z,22.07
2022-08-12T19:54:36.582Z,21.87
2022-08-12T19:57:42.455Z,21.76
2022-08-12T20:00:48.974Z,21.78
2022-08-12T20:03:57.447Z,21.75
2022-08-12T20:07:03.339Z,21.26
2022-08-12T20:10:11.826Z,20.70
2022-08-12T20:13:26.950Z,20.48
2022-08-12T20:16:52.831Z,20.31
2022-08-12T20:20:17.160Z,20.10
2022-08-12T20:23:50.198Z,20.12
2022-08-12T20:26:51.930Z,20.24
2022-08-12T20:29:54.622Z,20.27
2022-08-12T20:33:00.488Z,20.36
2022-08-12T20:36:13.032Z,20.39
2022-08-12T20:39:53.017Z,20.48
2022-08-12T20:42:53.515Z,20.44
2022-08-12T20:45:57.499Z,20.41
2022-08-12T20:49:17.095Z,20.26
2022-08-12T20:52:22.499Z,20.16
2022-08-12T20:55:42.334Z,20.19
2022-08-12T20:58:45.687Z,20.24
2022-08-12T21:01:49.317Z,20.16
2022-08-12T21:05:19.473Z,19.98
2022-08-12T21:08:26.587Z,19.75
2022-08-12T21:11:33.930Z,19.71
2022-08-12T21:14:39.946Z,19.68
2022-08-12T21:18:11.552Z,19.76
2022-08-12T21:21:40.303Z,19.95
2022-08-12T21:24:46.953Z,19.89
2022-08-12T21:27:59.445Z,19.76
2022-08-12T21:32:34.951Z,19.56
2022-08-12T21:34:29.628Z,19.38
2022-08-12T21:37:37.413Z,19.44
2022-08-12T21:40:51.974Z,19.49
2022-08-12T21:44:01.708Z,19.50
2022-08-12T21:47:20.984Z,19.56
2022-08-12T21:50:25.988Z,19.63
2022-08-12T21:54:07.820Z,19.71
2022-08-12T21:56:54.175Z,19.77
2022-08-12T21:59:57.984Z,19.72
2022-08-12T22:03:42.654Z,19.61
2022-08-12T22:06:43.103Z,19.56
2022-08-12T22:09:46.840Z,19.60
2022-08-12T22:13:00.981Z,19.67
2022-08-12T22:16:05.424Z,19.73
2022-08-12T22:19:07.866Z,19.62
2022-08-12T22:22:12.286Z,19.51
2022-08-12T22:25:16.717Z,19.33
2022-08-12T22:28:40.468Z,19.16
2022-08-12T22:31:44.268Z,19.02
2022-08-12T22:35:08.274Z,18.85
2022-08-12T22:38:14.346Z,18.89
2022-08-12T22:41:37.709Z,19.05
2022-08-12T22:45:03.081Z,19.17
2022-08-12T22:48:07.085Z,19.28
2022-08-12T22:51:10.377Z,19.24
2022-08-12T22:54:20.850Z,19.12
2022-08-12T22:57:53.206Z,18.93
2022-08-12T23:00:57.086Z,18.81
2022-08-12T23:04:03.026Z,18.80
2022-08-12T23:07:07.319Z,18.86
2022-08-12T23:10:10.545Z,18.87
2022-08-12T23:13:42.238Z,18.77
2022-08-12T23:16:49.489Z,18.59
2022-08-12T23:19:56.122Z,18.55
2022-08-12T23:23:03.196Z,18.59
2022-08-12T23:26:09.094Z,18.60
2022-08-12T23:29:30.051Z,18.67
2022-08-12T23:32:39.235Z,18.72
2022-08-12T23:35:45.827Z,18.75
2022-08-12T23:38:58.728Z,18.66
2022-08-12T23:42:17.455Z,18.51
2022-08-12T23:45:31.325Z,18.34
2022-08-12T23:48:34.710Z,18.27
2022-08-12T23:51:38.657Z,18.21
2022-08-12T23:54:45.783Z,18.06
2022-08-12T23:58:20.725Z,17.96
